sensor_id;sensor_type;location;lat;lon;timestamp;P1;durP1;ratioP1;P2;durP2;ratioP2
39698;SDS011;25372;50.582;12.250;2023-05-10T00:07:17;3.20;;;2.10;;
39698;SDS011;25372;50.582;12.250;2023-05-10T00:17:38;1.17;;;1.00;;
39698;SDS011;25372;50.582;12.250;2023-05-10T00:28:00;1.05;;;0.95;;
39698;SDS011;25372;50.582;12.250;2023-05-10T00:38:21;1.00;;;1.00;;
39698;SDS011;25372;50.582;12.250;2023-05-10T00:48:43;1.42;;;1.02;;
39698;SDS011;25372;50.582;12.250;2023-05-10T00:59:05;1.48;;;1.38;;
39698;SDS011;25372;50.582;12.250;2023-05-10T01:09:29;1.05;;;0.98;;
39698;SDS011;25372;50.582;12.250;2023-05-10T01:19:50;2.00;;;1.20;;
39698;SDS011;25372;50.582;12.250;2023-05-10T01:30:20;1.80;;;1.38;;
39698;SDS011;25372;50.582;12.250;2023-05-10T01:41:03;1.38;;;1.15;;
39698;SDS011;25372;50.582;12.250;2023-05-10T01:51:34;1.35;;;1.15;;
39698;SDS011;25372;50.582;12.250;2023-05-10T02:02:00;3.22;;;1.30;;
39698;SDS011;25372;50.582;12.250;2023-05-10T02:12:22;2.53;;;1.70;;
39698;SDS011;25372;50.582;12.250;2023-05-10T02:22:47;1.30;;;1.02;;
39698;SDS011;25372;50.582;12.250;2023-05-10T02:33:11;1.20;;;1.10;;
39698;SDS011;25372;50.582;12.250;2023-05-10T02:43:33;1.35;;;1.23;;
39698;SDS011;25372;50.582;12.250;2023-05-10T02:53:56;9.88;;;2.33;;
39698;SDS011;25372;50.582;12.250;2023-05-10T03:04:21;1.43;;;1.20;;
39698;SDS011;25372;50.582;12.250;2023-05-10T03:14:45;2.28;;;1.15;;
39698;SDS011;25372;50.582;12.250;2023-05-10T03:25:15;2.13;;;1.35;;
39698;SDS011;25372;50.582;12.250;2023-05-10T03:35:37;1.97;;;1.30;;
39698;SDS011;25372;50.582;12.250;2023-05-10T03:46:02;3.00;;;1.20;;
39698;SDS011;25372;50.582;12.250;2023-05-10T03:56:23;3.50;;;1.40;;
39698;SDS011;25372;50.582;12.250;2023-05-10T04:06:45;3.50;;;1.35;;
39698;SDS011;25372;50.582;12.250;2023-05-10T04:17:06;2.80;;;1.95;;
39698;SDS011;25372;50.582;12.250;2023-05-10T04:27:28;1.42;;;0.90;;
39698;SDS011;25372;50.582;12.250;2023-05-10T04:37:49;1.35;;;1.17;;
39698;SDS011;25372;50.582;12.250;2023-05-10T04:48:12;3.72;;;1.38;;
39698;SDS011;25372;50.582;12.250;2023-05-10T04:58:33;1.92;;;1.60;;
39698;SDS011;25372;50.582;12.250;2023-05-10T05:08:55;1.50;;;1.40;;
39698;SDS011;25372;50.582;12.250;2023-05-10T05:19:15;0.82;;;0.60;;
39698;SDS011;25372;50.582;12.250;2023-05-10T05:29:37;1.15;;;0.90;;
39698;SDS011;25372;50.582;12.250;2023-05-10T05:39:58;1.00;;;0.93;;
39698;SDS011;25372;50.582;12.250;2023-05-10T05:50:22;1.23;;;0.90;;
39698;SDS011;25372;50.582;12.250;2023-05-10T06:00:43;0.80;;;0.80;;
39698;SDS011;25372;50.582;12.250;2023-05-10T06:11:05;1.60;;;0.85;;
39698;SDS011;25372;50.582;12.250;2023-05-10T06:21:26;1.48;;;1.15;;
39698;SDS011;25372;50.582;12.250;2023-05-10T06:31:48;1.10;;;1.05;;
39698;SDS011;25372;50.582;12.250;2023-05-10T06:42:09;1.88;;;1.20;;
39698;SDS011;25372;50.582;12.250;2023-05-10T06:52:31;2.15;;;1.45;;
39698;SDS011;25372;50.582;12.250;2023-05-10T07:02:52;1.08;;;0.98;;
39698;SDS011;25372;50.582;12.250;2023-05-10T07:13:14;1.30;;;1.20;;
39698;SDS011;25372;50.582;12.250;2023-05-10T07:23:35;2.22;;;1.30;;
39698;SDS011;25372;50.582;12.250;2023-05-10T07:33:57;1.70;;;1.10;;
39698;SDS011;25372;50.582;12.250;2023-05-10T07:44:17;2.22;;;1.35;;
39698;SDS011;25372;50.582;12.250;2023-05-10T07:54:41;2.03;;;1.35;;
39698;SDS011;25372;50.582;12.250;2023-05-10T08:05:02;1.50;;;1.23;;
39698;SDS011;25372;50.582;12.250;2023-05-10T08:15:25;1.67;;;1.38;;
39698;SDS011;25372;50.582;12.250;2023-05-10T08:25:46;1.80;;;1.00;;
39698;SDS011;25372;50.582;12.250;2023-05-10T08:36:09;1.20;;;0.90;;
39698;SDS011;25372;50.582;12.250;2023-05-10T08:46:29;2.15;;;1.13;;
39698;SDS011;25372;50.582;12.250;2023-05-10T08:56:54;1.57;;;1.23;;
39698;SDS011;25372;50.582;12.250;2023-05-10T09:07:16;1.77;;;1.30;;
39698;SDS011;25372;50.582;12.250;2023-05-10T09:17:38;1.48;;;1.00;;
39698;SDS011;25372;50.582;12.250;2023-05-10T09:28:01;1.67;;;1.10;;
39698;SDS011;25372;50.582;12.250;2023-05-10T09:38:23;1.80;;;1.20;;
39698;SDS011;25372;50.582;12.250;2023-05-10T09:48:46;1.77;;;0.90;;
39698;SDS011;25372;50.582;12.250;2023-05-10T09:59:09;2.70;;;1.25;;
39698;SDS011;25372;50.582;12.250;2023-05-10T10:09:32;2.05;;;1.20;;
39698;SDS011;25372;50.582;12.250;2023-05-10T10:19:55;1.52;;;1.35;;
39698;SDS011;25372;50.582;12.250;2023-05-10T10:30:21;2.92;;;1.50;;
39698;SDS011;25372;50.582;12.250;2023-05-10T10:40:49;2.45;;;1.23;;
39698;SDS011;25372;50.582;12.250;2023-05-10T10:51:22;3.05;;;1.42;;
39698;SDS011;25372;50.582;12.250;2023-05-10T11:01:44;3.92;;;2.13;;
39698;SDS011;25372;50.582;12.250;2023-05-10T11:12:07;1.63;;;1.05;;
39698;SDS011;25372;50.582;12.250;2023-05-10T11:22:29;1.05;;;0.95;;
39698;SDS011;25372;50.582;12.250;2023-05-10T11:33:14;1.85;;;1.42;;
39698;SDS011;25372;50.582;12.250;2023-05-10T11:43:37;3.25;;;1.40;;
39698;SDS011;25372;50.582;12.250;2023-05-10T11:54:00;1.73;;;1.53;;
39698;SDS011;25372;50.582;12.250;2023-05-10T12:04:22;1.23;;;1.00;;
39698;SDS011;25372;50.582;12.250;2023-05-10T12:14:43;2.10;;;1.73;;
39698;SDS011;25372;50.582;12.250;2023-05-10T12:25:06;2.97;;;1.60;;
39698;SDS011;25372;50.582;12.250;2023-05-10T12:35:32;4.10;;;1.60;;
39698;SDS011;25372;50.582;12.250;2023-05-10T12:45:54;2.17;;;1.60;;
39698;SDS011;25372;50.582;12.250;2023-05-10T12:56:15;3.10;;;1.52;;
39698;SDS011;25372;50.582;12.250;2023-05-10T13:06:37;1.73;;;1.30;;
39698;SDS011;25372;50.582;12.250;2023-05-10T13:16:58;2.47;;;1.40;;
39698;SDS011;25372;50.582;12.250;2023-05-10T13:27:20;1.40;;;1.30;;
39698;SDS011;25372;50.582;12.250;2023-05-10T13:37:41;3.47;;;1.40;;
39698;SDS011;25372;50.582;12.250;2023-05-10T13:48:03;2.55;;;2.15;;
39698;SDS011;25372;50.582;12.250;2023-05-10T13:58:24;2.42;;;1.60;;
39698;SDS011;25372;50.582;12.250;2023-05-10T14:08:46;2.30;;;1.30;;
39698;SDS011;25372;50.582;12.250;2023-05-10T14:19:07;3.25;;;1.70;;
39698;SDS011;25372;50.582;12.250;2023-05-10T14:29:28;9.30;;;2.13;;
39698;SDS011;25372;50.582;12.250;2023-05-10T14:39:49;1.90;;;1.70;;
39698;SDS011;25372;50.582;12.250;2023-05-10T14:50:11;1.85;;;1.70;;
39698;SDS011;25372;50.582;12.250;2023-05-10T15:00:32;1.77;;;1.30;;
39698;SDS011;25372;50.582;12.250;2023-05-10T15:10:54;1.45;;;1.02;;
39698;SDS011;25372;50.582;12.250;2023-05-10T15:21:15;5.20;;;1.83;;
39698;SDS011;25372;50.582;12.250;2023-05-10T15:31:37;2.65;;;1.42;;
39698;SDS011;25372;50.582;12.250;2023-05-10T15:41:58;14.18;;;2.58;;
39698;SDS011;25372;50.582;12.250;2023-05-10T15:52:22;2.47;;;1.40;;
39698;SDS011;25372;50.582;12.250;2023-05-10T16:02:43;1.70;;;1.33;;
39698;SDS011;25372;50.582;12.250;2023-05-10T16:13:05;2.88;;;1.75;;
39698;SDS011;25372;50.582;12.250;2023-05-10T16:23:26;2.30;;;1.38;;
39698;SDS011;25372;50.582;12.250;2023-05-10T16:33:48;2.85;;;1.45;;
39698;SDS011;25372;50.582;12.250;2023-05-10T16:44:09;3.50;;;1.92;;
39698;SDS011;25372;50.582;12.250;2023-05-10T16:54:31;2.55;;;1.55;;
39698;SDS011;25372;50.582;12.250;2023-05-10T17:04:52;2.28;;;1.42;;
39698;SDS011;25372;50.582;12.250;2023-05-10T17:15:15;2.78;;;2.00;;
39698;SDS011;25372;50.582;12.250;2023-05-10T17:25:37;1.17;;;1.00;;
39698;SDS011;25372;50.582;12.250;2023-05-10T17:35:59;2.08;;;1.67;;
39698;SDS011;25372;50.582;12.250;2023-05-10T17:46:19;2.92;;;1.58;;
39698;SDS011;25372;50.582;12.250;2023-05-10T17:56:42;1.90;;;1.58;;
39698;SDS011;25372;50.582;12.250;2023-05-10T18:07:02;1.67;;;1.10;;
39698;SDS011;25372;50.582;12.250;2023-05-10T18:17:24;1.20;;;1.10;;
39698;SDS011;25372;50.582;12.250;2023-05-10T18:27:46;0.93;;;0.75;;
39698;SDS011;25372;50.582;12.250;2023-05-10T18:38:08;1.30;;;1.17;;
39698;SDS011;25372;50.582;12.250;2023-05-10T18:48:31;2.33;;;1.27;;
39698;SDS011;25372;50.582;12.250;2023-05-10T18:58:54;1.23;;;1.13;;
39698;SDS011;25372;50.582;12.250;2023-05-10T19:09:15;1.20;;;1.00;;
39698;SDS011;25372;50.582;12.250;2023-05-10T19:19:40;1.30;;;1.20;;
39698;SDS011;25372;50.582;12.250;2023-05-10T19:30:00;1.52;;;1.00;;
39698;SDS011;25372;50.582;12.250;2023-05-10T19:40:23;2.25;;;1.30;;
39698;SDS011;25372;50.582;12.250;2023-05-10T19:50:44;1.20;;;1.02;;
39698;SDS011;25372;50.582;12.250;2023-05-10T20:01:06;2.42;;;1.60;;
39698;SDS011;25372;50.582;12.250;2023-05-10T20:11:27;1.60;;;1.15;;
39698;SDS011;25372;50.582;12.250;2023-05-10T20:21:50;1.73;;;1.20;;
39698;SDS011;25372;50.582;12.250;2023-05-10T20:32:10;2.05;;;1.65;;
39698;SDS011;25372;50.582;12.250;2023-05-10T20:42:33;2.88;;;1.48;;
39698;SDS011;25372;50.582;12.250;2023-05-10T20:52:53;3.00;;;1.90;;
39698;SDS011;25372;50.582;12.250;2023-05-10T21:03:15;2.00;;;1.60;;
39698;SDS011;25372;50.582;12.250;2023-05-10T21:13:36;4.45;;;1.90;;
39698;SDS011;25372;50.582;12.250;2023-05-10T21:23:58;2.33;;;1.42;;
39698;SDS011;25372;50.582;12.250;2023-05-10T21:34:19;3.17;;;1.63;;
39698;SDS011;25372;50.582;12.250;2023-05-10T21:44:41;2.33;;;1.55;;
39698;SDS011;25372;50.582;12.250;2023-05-10T21:55:02;2.38;;;1.70;;
39698;SDS011;25372;50.582;12.250;2023-05-10T22:05:25;3.38;;;2.58;;
39698;SDS011;25372;50.582;12.250;2023-05-10T22:15:46;2.80;;;2.05;;
39698;SDS011;25372;50.582;12.250;2023-05-10T22:26:08;5.72;;;2.55;;
39698;SDS011;25372;50.582;12.250;2023-05-10T22:36:28;5.55;;;2.63;;
39698;SDS011;25372;50.582;12.250;2023-05-10T22:46:51;5.45;;;2.65;;
39698;SDS011;25372;50.582;12.250;2023-05-10T22:57:12;2.50;;;2.10;;
39698;SDS011;25372;50.582;12.250;2023-05-10T23:07:34;6.40;;;2.80;;
39698;SDS011;25372;50.582;12.250;2023-05-10T23:17:55;5.18;;;2.70;;
39698;SDS011;25372;50.582;12.250;2023-05-10T23:28:20;6.85;;;2.45;;
39698;SDS011;25372;50.582;12.250;2023-05-10T23:38:41;2.95;;;2.15;;
39698;SDS011;25372;50.582;12.250;2023-05-10T23:49:03;6.57;;;2.75;;
39698;SDS011;25372;50.582;12.250;2023-05-10T23:59:24;6.22;;;3.15;;
